sensor_id;sensor_type;location;lat;lon;timestamp;P1;durP1;ratioP1;P2;durP2;ratioP2
9398;SDS011;4739;49.334;8.792;2022-10-24T00:02:03;5.53;;;3.17;;
9398;SDS011;4739;49.334;8.792;2022-10-24T00:04:33;7.40;;;3.30;;
9398;SDS011;4739;49.334;8.792;2022-10-24T00:07:00;17.40;;;3.60;;
9398;SDS011;4739;49.334;8.792;2022-10-24T00:09:26;9.83;;;3.13;;
9398;SDS011;4739;49.334;8.792;2022-10-24T00:11:51;4.70;;;2.93;;
9398;SDS011;4739;49.334;8.792;2022-10-24T00:14:17;6.50;;;3.77;;
9398;SDS011;4739;49.334;8.792;2022-10-24T00:16:42;8.80;;;3.87;;
9398;SDS011;4739;49.334;8.792;2022-10-24T00:19:08;7.30;;;4.27;;
9398;SDS011;4739;49.334;8.792;2022-10-24T00:21:34;8.50;;;3.90;;
9398;SDS011;4739;49.334;8.792;2022-10-24T00:23:59;6.17;;;3.47;;
9398;SDS011;4739;49.334;8.792;2022-10-24T00:26:25;6.93;;;3.50;;
9398;SDS011;4739;49.334;8.792;2022-10-24T00:28:50;9.87;;;3.10;;
9398;SDS011;4739;49.334;8.792;2022-10-24T00:31:16;7.10;;;3.17;;
9398;SDS011;4739;49.334;8.792;2022-10-24T00:33:43;6.33;;;3.10;;
9398;SDS011;4739;49.334;8.792;2022-10-24T00:36:12;6.40;;;3.03;;
9398;SDS011;4739;49.334;8.792;2022-10-24T00:38:39;7.47;;;2.90;;
9398;SDS011;4739;49.334;8.792;2022-10-24T00:41:05;5.53;;;2.80;;
9398;SDS011;4739;49.334;8.792;2022-10-24T00:43:31;4.97;;;2.20;;
9398;SDS011;4739;49.334;8.792;2022-10-24T00:51:02;4.23;;;2.90;;
9398;SDS011;4739;49.334;8.792;2022-10-24T00:53:37;9.07;;;3.07;;
9398;SDS011;4739;49.334;8.792;2022-10-24T00:56:08;6.80;;;3.27;;
9398;SDS011;4739;49.334;8.792;2022-10-24T00:58:36;53.57;;;5.70;;
9398;SDS011;4739;49.334;8.792;2022-10-24T01:01:03;19.37;;;4.53;;
9398;SDS011;4739;49.334;8.792;2022-10-24T01:03:30;31.00;;;4.77;;
9398;SDS011;4739;49.334;8.792;2022-10-24T01:22:00;16.67;;;3.60;;
9398;SDS011;4739;49.334;8.792;2022-10-24T01:27:36;5.47;;;3.03;;
9398;SDS011;4739;49.334;8.792;2022-10-24T01:30:08;4.50;;;2.20;;
9398;SDS011;4739;49.334;8.792;2022-10-24T01:32:47;7.90;;;2.67;;
9398;SDS011;4739;49.334;8.792;2022-10-24T01:43:16;9.13;;;3.13;;
9398;SDS011;4739;49.334;8.792;2022-10-24T01:45:47;5.37;;;2.37;;
9398;SDS011;4739;49.334;8.792;2022-10-24T01:48:19;5.53;;;2.47;;
9398;SDS011;4739;49.334;8.792;2022-10-24T01:50:48;4.87;;;2.10;;
9398;SDS011;4739;49.334;8.792;2022-10-24T01:53:16;7.33;;;2.30;;
9398;SDS011;4739;49.334;8.792;2022-10-24T01:55:43;4.37;;;2.10;;
9398;SDS011;4739;49.334;8.792;2022-10-24T01:58:10;3.43;;;2.00;;
9398;SDS011;4739;49.334;8.792;2022-10-24T02:00:36;7.77;;;2.60;;
9398;SDS011;4739;49.334;8.792;2022-10-24T02:06:05;12.57;;;2.80;;
9398;SDS011;4739;49.334;8.792;2022-10-24T02:08:38;4.40;;;2.50;;
9398;SDS011;4739;49.334;8.792;2022-10-24T02:11:06;9.63;;;2.60;;
9398;SDS011;4739;49.334;8.792;2022-10-24T02:16:26;11.00;;;3.27;;
9398;SDS011;4739;49.334;8.792;2022-10-24T02:18:53;8.40;;;3.13;;
9398;SDS011;4739;49.334;8.792;2022-10-24T02:21:36;19.07;;;3.70;;
9398;SDS011;4739;49.334;8.792;2022-10-24T02:24:21;36.97;;;4.57;;
9398;SDS011;4739;49.334;8.792;2022-10-24T02:29:26;12.70;;;3.23;;
9398;SDS011;4739;49.334;8.792;2022-10-24T02:32:15;4.60;;;2.60;;
9398;SDS011;4739;49.334;8.792;2022-10-24T02:34:45;6.70;;;2.80;;
9398;SDS011;4739;49.334;8.792;2022-10-24T02:37:11;6.20;;;2.80;;
9398;SDS011;4739;49.334;8.792;2022-10-24T02:42:09;7.93;;;2.90;;
9398;SDS011;4739;49.334;8.792;2022-10-24T02:44:36;12.13;;;3.13;;
9398;SDS011;4739;49.334;8.792;2022-10-24T02:47:04;9.77;;;3.00;;
9398;SDS011;4739;49.334;8.792;2022-10-24T02:49:31;12.33;;;2.97;;
9398;SDS011;4739;49.334;8.792;2022-10-24T02:51:57;14.23;;;3.47;;
9398;SDS011;4739;49.334;8.792;2022-10-24T02:54:24;9.83;;;2.70;;
9398;SDS011;4739;49.334;8.792;2022-10-24T02:56:51;3.80;;;2.40;;
9398;SDS011;4739;49.334;8.792;2022-10-24T02:59:20;6.37;;;2.83;;
9398;SDS011;4739;49.334;8.792;2022-10-24T03:01:46;3.40;;;2.33;;
9398;SDS011;4739;49.334;8.792;2022-10-24T03:04:11;8.90;;;2.37;;
9398;SDS011;4739;49.334;8.792;2022-10-24T03:06:37;12.87;;;2.77;;
9398;SDS011;4739;49.334;8.792;2022-10-24T03:09:02;9.80;;;2.70;;
9398;SDS011;4739;49.334;8.792;2022-10-24T03:11:28;6.53;;;2.03;;
9398;SDS011;4739;49.334;8.792;2022-10-24T03:13:54;12.37;;;2.90;;
9398;SDS011;4739;49.334;8.792;2022-10-24T03:16:19;13.13;;;2.77;;
9398;SDS011;4739;49.334;8.792;2022-10-24T03:18:45;9.93;;;2.33;;
9398;SDS011;4739;49.334;8.792;2022-10-24T03:21:10;12.20;;;2.60;;
9398;SDS011;4739;49.334;8.792;2022-10-24T03:23:36;6.83;;;2.73;;
9398;SDS011;4739;49.334;8.792;2022-10-24T03:26:02;10.57;;;2.80;;
9398;SDS011;4739;49.334;8.792;2022-10-24T03:28:27;18.13;;;3.63;;
9398;SDS011;4739;49.334;8.792;2022-10-24T03:30:53;7.77;;;3.10;;
9398;SDS011;4739;49.334;8.792;2022-10-24T03:33:20;5.57;;;2.83;;
9398;SDS011;4739;49.334;8.792;2022-10-24T03:35:46;4.33;;;2.67;;
9398;SDS011;4739;49.334;8.792;2022-10-24T03:38:16;6.77;;;2.70;;
9398;SDS011;4739;49.334;8.792;2022-10-24T03:40:41;4.97;;;3.13;;
9398;SDS011;4739;49.334;8.792;2022-10-24T03:43:07;4.97;;;3.20;;
9398;SDS011;4739;49.334;8.792;2022-10-24T03:45:33;6.57;;;3.13;;
9398;SDS011;4739;49.334;8.792;2022-10-24T03:47:58;4.80;;;2.87;;
9398;SDS011;4739;49.334;8.792;2022-10-24T03:50:24;3.80;;;2.70;;
9398;SDS011;4739;49.334;8.792;2022-10-24T03:52:50;2.80;;;2.57;;
9398;SDS011;4739;49.334;8.792;2022-10-24T03:55:15;5.83;;;3.80;;
9398;SDS011;4739;49.334;8.792;2022-10-24T03:57:41;5.37;;;3.10;;
9398;SDS011;4739;49.334;8.792;2022-10-24T04:00:06;2.90;;;2.70;;
9398;SDS011;4739;49.334;8.792;2022-10-24T04:02:32;3.07;;;2.70;;
9398;SDS011;4739;49.334;8.792;2022-10-24T04:04:58;3.00;;;2.70;;
9398;SDS011;4739;49.334;8.792;2022-10-24T04:07:24;3.47;;;2.40;;
9398;SDS011;4739;49.334;8.792;2022-10-24T04:09:49;4.50;;;3.20;;
9398;SDS011;4739;49.334;8.792;2022-10-24T04:12:15;3.53;;;2.43;;
9398;SDS011;4739;49.334;8.792;2022-10-24T04:14:40;5.30;;;2.80;;
9398;SDS011;4739;49.334;8.792;2022-10-24T04:17:06;4.50;;;2.47;;
9398;SDS011;4739;49.334;8.792;2022-10-24T04:19:31;3.70;;;2.50;;
9398;SDS011;4739;49.334;8.792;2022-10-24T04:21:57;3.23;;;2.70;;
9398;SDS011;4739;49.334;8.792;2022-10-24T04:24:23;6.03;;;4.83;;
9398;SDS011;4739;49.334;8.792;2022-10-24T04:26:48;15.17;;;10.80;;
9398;SDS011;4739;49.334;8.792;2022-10-24T04:29:14;5.00;;;4.50;;
9398;SDS011;4739;49.334;8.792;2022-10-24T04:31:40;3.83;;;3.27;;
9398;SDS011;4739;49.334;8.792;2022-10-24T04:34:05;4.77;;;3.20;;
9398;SDS011;4739;49.334;8.792;2022-10-24T04:36:32;5.03;;;3.30;;
9398;SDS011;4739;49.334;8.792;2022-10-24T04:38:58;3.80;;;2.50;;
9398;SDS011;4739;49.334;8.792;2022-10-24T04:41:23;5.63;;;2.60;;
9398;SDS011;4739;49.334;8.792;2022-10-24T04:43:50;3.10;;;2.47;;
9398;SDS011;4739;49.334;8.792;2022-10-24T04:46:16;4.87;;;2.80;;
9398;SDS011;4739;49.334;8.792;2022-10-24T04:48:42;6.17;;;3.00;;
9398;SDS011;4739;49.334;8.792;2022-10-24T04:51:07;4.87;;;3.30;;
9398;SDS011;4739;49.334;8.792;2022-10-24T04:53:33;11.60;;;3.43;;
9398;SDS011;4739;49.334;8.792;2022-10-24T04:55:59;12.33;;;3.50;;
9398;SDS011;4739;49.334;8.792;2022-10-24T04:58:24;10.87;;;4.97;;
9398;SDS011;4739;49.334;8.792;2022-10-24T05:00:50;7.67;;;4.03;;
9398;SDS011;4739;49.334;8.792;2022-10-24T05:03:16;6.70;;;4.57;;
9398;SDS011;4739;49.334;8.792;2022-10-24T05:05:43;6.40;;;3.30;;
9398;SDS011;4739;49.334;8.792;2022-10-24T05:08:09;5.43;;;3.27;;
9398;SDS011;4739;49.334;8.792;2022-10-24T05:10:35;7.07;;;3.20;;
9398;SDS011;4739;49.334;8.792;2022-10-24T05:13:00;5.17;;;2.50;;
9398;SDS011;4739;49.334;8.792;2022-10-24T05:15:26;5.20;;;2.60;;
9398;SDS011;4739;49.334;8.792;2022-10-24T05:17:53;5.03;;;2.47;;
9398;SDS011;4739;49.334;8.792;2022-10-24T05:20:23;4.97;;;2.40;;
9398;SDS011;4739;49.334;8.792;2022-10-24T05:22:49;4.03;;;2.60;;
9398;SDS011;4739;49.334;8.792;2022-10-24T05:25:15;7.70;;;2.97;;
9398;SDS011;4739;49.334;8.792;2022-10-24T05:27:40;6.30;;;2.60;;
9398;SDS011;4739;49.334;8.792;2022-10-24T05:30:06;5.70;;;2.47;;
9398;SDS011;4739;49.334;8.792;2022-10-24T05:32:32;4.70;;;3.07;;
9398;SDS011;4739;49.334;8.792;2022-10-24T05:34:58;5.47;;;3.10;;
9398;SDS011;4739;49.334;8.792;2022-10-24T05:37:23;7.53;;;3.23;;
9398;SDS011;4739;49.334;8.792;2022-10-24T05:39:49;4.00;;;2.70;;
9398;SDS011;4739;49.334;8.792;2022-10-24T05:42:14;3.27;;;2.63;;
9398;SDS011;4739;49.334;8.792;2022-10-24T05:44:40;5.50;;;3.20;;
9398;SDS011;4739;49.334;8.792;2022-10-24T05:47:06;6.53;;;3.60;;
9398;SDS011;4739;49.334;8.792;2022-10-24T05:49:31;7.10;;;3.07;;
9398;SDS011;4739;49.334;8.792;2022-10-24T05:51:57;6.90;;;3.30;;
9398;SDS011;4739;49.334;8.792;2022-10-24T05:54:23;5.70;;;3.23;;
9398;SDS011;4739;49.334;8.792;2022-10-24T05:56:48;7.07;;;3.90;;
9398;SDS011;4739;49.334;8.792;2022-10-24T05:59:14;7.07;;;3.53;;
9398;SDS011;4739;49.334;8.792;2022-10-24T06:01:40;6.07;;;3.50;;
9398;SDS011;4739;49.334;8.792;2022-10-24T06:04:06;7.20;;;3.53;;
9398;SDS011;4739;49.334;8.792;2022-10-24T06:06:32;6.37;;;4.30;;
9398;SDS011;4739;49.334;8.792;2022-10-24T06:08:58;6.57;;;3.97;;
9398;SDS011;4739;49.334;8.792;2022-10-24T06:11:24;6.13;;;4.63;;
9398;SDS011;4739;49.334;8.792;2022-10-24T06:13:50;6.37;;;4.17;;
9398;SDS011;4739;49.334;8.792;2022-10-24T06:16:15;8.27;;;4.13;;
9398;SDS011;4739;49.334;8.792;2022-10-24T06:18:41;4.77;;;3.53;;
9398;SDS011;4739;49.334;8.792;2022-10-24T06:21:07;8.03;;;4.40;;
9398;SDS011;4739;49.334;8.792;2022-10-24T06:23:34;6.17;;;4.33;;
9398;SDS011;4739;49.334;8.792;2022-10-24T06:26:00;6.33;;;4.37;;
9398;SDS011;4739;49.334;8.792;2022-10-24T06:28:26;6.73;;;4.13;;
9398;SDS011;4739;49.334;8.792;2022-10-24T06:30:52;7.73;;;3.83;;
9398;SDS011;4739;49.334;8.792;2022-10-24T06:33:20;8.40;;;4.07;;
9398;SDS011;4739;49.334;8.792;2022-10-24T06:35:46;5.10;;;3.60;;
9398;SDS011;4739;49.334;8.792;2022-10-24T06:38:12;4.53;;;3.40;;
9398;SDS011;4739;49.334;8.792;2022-10-24T06:40:38;6.87;;;3.90;;
9398;SDS011;4739;49.334;8.792;2022-10-24T06:43:05;10.03;;;4.00;;
9398;SDS011;4739;49.334;8.792;2022-10-24T06:45:31;9.43;;;3.63;;
9398;SDS011;4739;49.334;8.792;2022-10-24T06:47:56;5.13;;;3.80;;
9398;SDS011;4739;49.334;8.792;2022-10-24T06:50:22;5.37;;;3.63;;
9398;SDS011;4739;49.334;8.792;2022-10-24T06:52:48;7.13;;;3.53;;
9398;SDS011;4739;49.334;8.792;2022-10-24T06:55:13;5.83;;;3.47;;
9398;SDS011;4739;49.334;8.792;2022-10-24T06:57:39;6.43;;;4.60;;
9398;SDS011;4739;49.334;8.792;2022-10-24T07:00:05;7.40;;;4.10;;
9398;SDS011;4739;49.334;8.792;2022-10-24T07:02:32;5.53;;;3.30;;
9398;SDS011;4739;49.334;8.792;2022-10-24T07:04:58;7.77;;;3.70;;
9398;SDS011;4739;49.334;8.792;2022-10-24T07:07:24;9.37;;;3.93;;
9398;SDS011;4739;49.334;8.792;2022-10-24T07:09:50;4.53;;;3.53;;
9398;SDS011;4739;49.334;8.792;2022-10-24T07:12:21;4.47;;;3.27;;
9398;SDS011;4739;49.334;8.792;2022-10-24T07:14:47;5.50;;;3.63;;
9398;SDS011;4739;49.334;8.792;2022-10-24T07:17:13;5.70;;;2.90;;
9398;SDS011;4739;49.334;8.792;2022-10-24T07:19:40;4.73;;;3.33;;
9398;SDS011;4739;49.334;8.792;2022-10-24T07:22:05;5.13;;;3.07;;
9398;SDS011;4739;49.334;8.792;2022-10-24T07:24:31;5.73;;;2.60;;
9398;SDS011;4739;49.334;8.792;2022-10-24T07:26:56;7.13;;;3.20;;
9398;SDS011;4739;49.334;8.792;2022-10-24T07:29:22;7.43;;;3.20;;
9398;SDS011;4739;49.334;8.792;2022-10-24T07:31:48;6.30;;;2.97;;
9398;SDS011;4739;49.334;8.792;2022-10-24T07:34:14;7.03;;;2.90;;
9398;SDS011;4739;49.334;8.792;2022-10-24T07:36:40;5.50;;;2.90;;
9398;SDS011;4739;49.334;8.792;2022-10-24T07:39:06;5.87;;;2.50;;
9398;SDS011;4739;49.334;8.792;2022-10-24T07:41:31;5.47;;;2.50;;
9398;SDS011;4739;49.334;8.792;2022-10-24T07:43:58;6.30;;;2.50;;
9398;SDS011;4739;49.334;8.792;2022-10-24T07:46:26;7.30;;;2.77;;
9398;SDS011;4739;49.334;8.792;2022-10-24T07:48:52;5.63;;;2.87;;
9398;SDS011;4739;49.334;8.792;2022-10-24T07:51:18;5.30;;;2.90;;
9398;SDS011;4739;49.334;8.792;2022-10-24T07:53:45;10.07;;;3.40;;
9398;SDS011;4739;49.334;8.792;2022-10-24T07:56:11;5.30;;;2.70;;
9398;SDS011;4739;49.334;8.792;2022-10-24T07:58:40;6.03;;;2.90;;
9398;SDS011;4739;49.334;8.792;2022-10-24T08:01:08;6.33;;;2.57;;
9398;SDS011;4739;49.334;8.792;2022-10-24T08:03:35;7.10;;;3.07;;
9398;SDS011;4739;49.334;8.792;2022-10-24T08:06:05;9.03;;;3.13;;
9398;SDS011;4739;49.334;8.792;2022-10-24T08:08:32;10.43;;;3.10;;
9398;SDS011;4739;49.334;8.792;2022-10-24T08:10:57;8.40;;;3.00;;
9398;SDS011;4739;49.334;8.792;2022-10-24T08:13:23;7.27;;;4.47;;
9398;SDS011;4739;49.334;8.792;2022-10-24T08:15:48;8.20;;;3.70;;
9398;SDS011;4739;49.334;8.792;2022-10-24T08:18:14;4.30;;;3.13;;
9398;SDS011;4739;49.334;8.792;2022-10-24T08:20:39;5.93;;;3.40;;
9398;SDS011;4739;49.334;8.792;2022-10-24T08:23:05;8.20;;;3.50;;
9398;SDS011;4739;49.334;8.792;2022-10-24T08:25:31;7.53;;;3.40;;
9398;SDS011;4739;49.334;8.792;2022-10-24T08:27:57;7.13;;;3.50;;
9398;SDS011;4739;49.334;8.792;2022-10-24T08:30:22;5.83;;;3.70;;
9398;SDS011;4739;49.334;8.792;2022-10-24T08:32:48;8.83;;;4.50;;
9398;SDS011;4739;49.334;8.792;2022-10-24T08:35:15;7.00;;;4.33;;
9398;SDS011;4739;49.334;8.792;2022-10-24T08:37:42;6.80;;;4.50;;
9398;SDS011;4739;49.334;8.792;2022-10-24T08:40:08;12.20;;;3.43;;
9398;SDS011;4739;49.334;8.792;2022-10-24T08:42:39;5.93;;;3.10;;
9398;SDS011;4739;49.334;8.792;2022-10-24T08:45:08;5.43;;;2.87;;
9398;SDS011;4739;49.334;8.792;2022-10-24T08:47:41;5.40;;;2.73;;
9398;SDS011;4739;49.334;8.792;2022-10-24T08:52:59;6.77;;;3.20;;
9398;SDS011;4739;49.334;8.792;2022-10-24T08:55:38;7.97;;;3.87;;
9398;SDS011;4739;49.334;8.792;2022-10-24T08:58:10;12.13;;;3.97;;
9398;SDS011;4739;49.334;8.792;2022-10-24T09:00:41;6.03;;;4.77;;
9398;SDS011;4739;49.334;8.792;2022-10-24T09:03:14;7.80;;;4.93;;
9398;SDS011;4739;49.334;8.792;2022-10-24T09:05:51;11.80;;;6.63;;
9398;SDS011;4739;49.334;8.792;2022-10-24T09:08:27;11.93;;;6.80;;
9398;SDS011;4739;49.334;8.792;2022-10-24T09:11:00;13.17;;;7.60;;
9398;SDS011;4739;49.334;8.792;2022-10-24T09:13:28;9.03;;;6.50;;
9398;SDS011;4739;49.334;8.792;2022-10-24T09:15:55;11.90;;;6.10;;
9398;SDS011;4739;49.334;8.792;2022-10-24T09:18:26;13.33;;;9.03;;
9398;SDS011;4739;49.334;8.792;2022-10-24T09:20:56;13.00;;;9.70;;
9398;SDS011;4739;49.334;8.792;2022-10-24T09:23:23;15.83;;;9.33;;
9398;SDS011;4739;49.334;8.792;2022-10-24T09:25:51;30.87;;;20.30;;
9398;SDS011;4739;49.334;8.792;2022-10-24T09:28:19;22.10;;;16.27;;
9398;SDS011;4739;49.334;8.792;2022-10-24T09:30:45;15.70;;;10.63;;
9398;SDS011;4739;49.334;8.792;2022-10-24T09:33:28;12.33;;;6.67;;
9398;SDS011;4739;49.334;8.792;2022-10-24T09:35:58;10.77;;;6.87;;
9398;SDS011;4739;49.334;8.792;2022-10-24T09:38:26;10.63;;;6.23;;
9398;SDS011;4739;49.334;8.792;2022-10-24T09:41:01;15.80;;;7.10;;
9398;SDS011;4739;49.334;8.792;2022-10-24T09:43:44;11.90;;;8.83;;
9398;SDS011;4739;49.334;8.792;2022-10-24T09:48:57;12.03;;;7.20;;
9398;SDS011;4739;49.334;8.792;2022-10-24T09:56:43;12.27;;;5.30;;
9398;SDS011;4739;49.334;8.792;2022-10-24T09:59:16;9.93;;;5.00;;
9398;SDS011;4739;49.334;8.792;2022-10-24T10:01:52;8.80;;;5.10;;
9398;SDS011;4739;49.334;8.792;2022-10-24T10:04:28;11.10;;;4.90;;
9398;SDS011;4739;49.334;8.792;2022-10-24T10:06:54;10.50;;;6.47;;
9398;SDS011;4739;49.334;8.792;2022-10-24T10:09:23;14.47;;;9.47;;
9398;SDS011;4739;49.334;8.792;2022-10-24T10:11:55;11.43;;;7.87;;
9398;SDS011;4739;49.334;8.792;2022-10-24T10:14:24;13.80;;;8.93;;
9398;SDS011;4739;49.334;8.792;2022-10-24T10:17:01;8.27;;;5.40;;
9398;SDS011;4739;49.334;8.792;2022-10-24T10:19:31;9.10;;;4.60;;
9398;SDS011;4739;49.334;8.792;2022-10-24T10:24:53;5.63;;;3.00;;
9398;SDS011;4739;49.334;8.792;2022-10-24T10:35:25;8.30;;;3.80;;
9398;SDS011;4739;49.334;8.792;2022-10-24T10:40:45;13.03;;;3.63;;
9398;SDS011;4739;49.334;8.792;2022-10-24T10:43:49;11.00;;;3.27;;
9398;SDS011;4739;49.334;8.792;2022-10-24T10:49:23;5.93;;;4.00;;
9398;SDS011;4739;49.334;8.792;2022-10-24T10:52:01;7.67;;;4.10;;
9398;SDS011;4739;49.334;8.792;2022-10-24T10:54:49;7.17;;;4.70;;
9398;SDS011;4739;49.334;8.792;2022-10-24T10:57:23;6.67;;;4.17;;
9398;SDS011;4739;49.334;8.792;2022-10-24T11:00:33;6.60;;;3.97;;
9398;SDS011;4739;49.334;8.792;2022-10-24T11:10:43;6.97;;;3.87;;
9398;SDS011;4739;49.334;8.792;2022-10-24T11:13:17;9.57;;;3.90;;
9398;SDS011;4739;49.334;8.792;2022-10-24T11:15:48;9.20;;;4.03;;
9398;SDS011;4739;49.334;8.792;2022-10-24T11:18:20;7.67;;;3.47;;
9398;SDS011;4739;49.334;8.792;2022-10-24T11:23:23;9.63;;;3.60;;
9398;SDS011;4739;49.334;8.792;2022-10-24T11:28:36;7.67;;;4.00;;
9398;SDS011;4739;49.334;8.792;2022-10-24T11:31:21;12.73;;;4.23;;
9398;SDS011;4739;49.334;8.792;2022-10-24T11:34:00;10.30;;;3.97;;
9398;SDS011;4739;49.334;8.792;2022-10-24T11:36:46;12.20;;;3.83;;
9398;SDS011;4739;49.334;8.792;2022-10-24T11:39:19;9.70;;;3.57;;
9398;SDS011;4739;49.334;8.792;2022-10-24T11:50:22;9.23;;;3.83;;
9398;SDS011;4739;49.334;8.792;2022-10-24T11:53:11;16.00;;;4.40;;
9398;SDS011;4739;49.334;8.792;2022-10-24T11:55:42;24.07;;;4.90;;
9398;SDS011;4739;49.334;8.792;2022-10-24T11:58:14;20.83;;;5.17;;
9398;SDS011;4739;49.334;8.792;2022-10-24T12:11:04;9.80;;;4.00;;
9398;SDS011;4739;49.334;8.792;2022-10-24T12:19:26;12.33;;;5.77;;
9398;SDS011;4739;49.334;8.792;2022-10-24T12:21:53;9.87;;;3.53;;
9398;SDS011;4739;49.334;8.792;2022-10-24T12:24:26;9.80;;;2.80;;
9398;SDS011;4739;49.334;8.792;2022-10-24T12:26:59;8.87;;;3.10;;
9398;SDS011;4739;49.334;8.792;2022-10-24T12:29:27;6.53;;;2.40;;
9398;SDS011;4739;49.334;8.792;2022-10-24T12:31:55;6.33;;;2.80;;
9398;SDS011;4739;49.334;8.792;2022-10-24T12:39:34;8.77;;;3.13;;
9398;SDS011;4739;49.334;8.792;2022-10-24T12:42:02;6.37;;;2.97;;
9398;SDS011;4739;49.334;8.792;2022-10-24T12:46:58;5.07;;;2.60;;
9398;SDS011;4739;49.334;8.792;2022-10-24T12:49:43;9.70;;;2.97;;
9398;SDS011;4739;49.334;8.792;2022-10-24T12:57:59;6.77;;;3.03;;
9398;SDS011;4739;49.334;8.792;2022-10-24T13:00:27;7.03;;;3.03;;
9398;SDS011;4739;49.334;8.792;2022-10-24T13:03:15;7.07;;;2.87;;
9398;SDS011;4739;49.334;8.792;2022-10-24T13:05:57;7.70;;;2.73;;
9398;SDS011;4739;49.334;8.792;2022-10-24T13:17:03;5.00;;;2.30;;
9398;SDS011;4739;49.334;8.792;2022-10-24T13:20:00;8.37;;;2.77;;
9398;SDS011;4739;49.334;8.792;2022-10-24T13:22:41;7.60;;;2.70;;
9398;SDS011;4739;49.334;8.792;2022-10-24T13:25:29;10.40;;;3.10;;
9398;SDS011;4739;49.334;8.792;2022-10-24T13:30:47;7.43;;;2.70;;
9398;SDS011;4739;49.334;8.792;2022-10-24T13:38:33;6.27;;;2.60;;
9398;SDS011;4739;49.334;8.792;2022-10-24T13:41:05;8.63;;;3.17;;
9398;SDS011;4739;49.334;8.792;2022-10-24T13:43:35;5.03;;;2.50;;
9398;SDS011;4739;49.334;8.792;2022-10-24T13:46:07;5.60;;;2.47;;
9398;SDS011;4739;49.334;8.792;2022-10-24T13:48:35;7.43;;;3.00;;
9398;SDS011;4739;49.334;8.792;2022-10-24T13:51:27;10.00;;;3.73;;
9398;SDS011;4739;49.334;8.792;2022-10-24T13:54:22;11.73;;;2.87;;
9398;SDS011;4739;49.334;8.792;2022-10-24T13:56:51;6.27;;;2.63;;
9398;SDS011;4739;49.334;8.792;2022-10-24T14:02:00;6.67;;;2.87;;
9398;SDS011;4739;49.334;8.792;2022-10-24T14:04:30;5.90;;;3.10;;
9398;SDS011;4739;49.334;8.792;2022-10-24T14:07:02;6.93;;;2.97;;
9398;SDS011;4739;49.334;8.792;2022-10-24T14:09:36;9.25;;;2.90;;
9398;SDS011;4739;49.334;8.792;2022-10-24T14:12:06;4.87;;;2.27;;
9398;SDS011;4739;49.334;8.792;2022-10-24T14:14:41;6.93;;;2.67;;
9398;SDS011;4739;49.334;8.792;2022-10-24T14:19:53;7.67;;;2.60;;
9398;SDS011;4739;49.334;8.792;2022-10-24T14:22:22;5.77;;;2.70;;
9398;SDS011;4739;49.334;8.792;2022-10-24T14:24:53;5.53;;;2.73;;
9398;SDS011;4739;49.334;8.792;2022-10-24T14:27:19;4.30;;;2.37;;
9398;SDS011;4739;49.334;8.792;2022-10-24T14:29:49;4.77;;;2.00;;
9398;SDS011;4739;49.334;8.792;2022-10-24T14:32:16;7.47;;;2.70;;
9398;SDS011;4739;49.334;8.792;2022-10-24T14:34:42;9.50;;;3.10;;
9398;SDS011;4739;49.334;8.792;2022-10-24T14:37:13;7.13;;;2.53;;
9398;SDS011;4739;49.334;8.792;2022-10-24T14:39:41;6.93;;;2.60;;
9398;SDS011;4739;49.334;8.792;2022-10-24T14:42:11;5.80;;;2.40;;
9398;SDS011;4739;49.334;8.792;2022-10-24T14:44:40;6.03;;;2.57;;
9398;SDS011;4739;49.334;8.792;2022-10-24T14:47:29;5.60;;;2.47;;
9398;SDS011;4739;49.334;8.792;2022-10-24T14:49:56;5.37;;;2.40;;
9398;SDS011;4739;49.334;8.792;2022-10-24T14:54:53;7.90;;;2.92;;
9398;SDS011;4739;49.334;8.792;2022-10-24T14:57:27;7.20;;;2.57;;
9398;SDS011;4739;49.334;8.792;2022-10-24T14:59:55;8.23;;;2.67;;
9398;SDS011;4739;49.334;8.792;2022-10-24T15:02:56;6.23;;;2.30;;
9398;SDS011;4739;49.334;8.792;2022-10-24T15:07:45;5.80;;;2.47;;
9398;SDS011;4739;49.334;8.792;2022-10-24T15:20:31;5.67;;;2.70;;
9398;SDS011;4739;49.334;8.792;2022-10-24T15:23:03;9.13;;;2.87;;
9398;SDS011;4739;49.334;8.792;2022-10-24T15:25:31;4.13;;;2.53;;
9398;SDS011;4739;49.334;8.792;2022-10-24T15:27:59;9.47;;;3.23;;
9398;SDS011;4739;49.334;8.792;2022-10-24T15:30:27;6.90;;;2.83;;
9398;SDS011;4739;49.334;8.792;2022-10-24T15:32:58;7.30;;;3.33;;
9398;SDS011;4739;49.334;8.792;2022-10-24T15:35:25;12.60;;;3.33;;
9398;SDS011;4739;49.334;8.792;2022-10-24T15:40:20;10.17;;;3.63;;
9398;SDS011;4739;49.334;8.792;2022-10-24T15:42:48;7.57;;;3.33;;
9398;SDS011;4739;49.334;8.792;2022-10-24T15:45:15;5.97;;;2.60;;
9398;SDS011;4739;49.334;8.792;2022-10-24T15:47:41;6.03;;;2.80;;
9398;SDS011;4739;49.334;8.792;2022-10-24T15:50:08;9.73;;;3.33;;
9398;SDS011;4739;49.334;8.792;2022-10-24T15:52:41;8.70;;;2.87;;
9398;SDS011;4739;49.334;8.792;2022-10-24T15:55:32;9.43;;;3.40;;
9398;SDS011;4739;49.334;8.792;2022-10-24T15:57:57;8.50;;;3.60;;
9398;SDS011;4739;49.334;8.792;2022-10-24T16:00:27;10.60;;;3.33;;
9398;SDS011;4739;49.334;8.792;2022-10-24T16:02:53;8.60;;;2.50;;
9398;SDS011;4739;49.334;8.792;2022-10-24T16:05:23;7.03;;;3.00;;
9398;SDS011;4739;49.334;8.792;2022-10-24T16:07:53;7.50;;;3.50;;
9398;SDS011;4739;49.334;8.792;2022-10-24T16:10:20;11.53;;;3.60;;
9398;SDS011;4739;49.334;8.792;2022-10-24T16:12:47;10.90;;;2.87;;
9398;SDS011;4739;49.334;8.792;2022-10-24T16:15:17;8.77;;;3.10;;
9398;SDS011;4739;49.334;8.792;2022-10-24T16:17:50;9.57;;;3.50;;
9398;SDS011;4739;49.334;8.792;2022-10-24T16:20:16;10.13;;;2.97;;
9398;SDS011;4739;49.334;8.792;2022-10-24T16:22:43;9.30;;;3.83;;
9398;SDS011;4739;49.334;8.792;2022-10-24T16:25:11;7.43;;;3.17;;
9398;SDS011;4739;49.334;8.792;2022-10-24T16:27:40;9.80;;;3.00;;
9398;SDS011;4739;49.334;8.792;2022-10-24T16:30:06;7.27;;;2.93;;
9398;SDS011;4739;49.334;8.792;2022-10-24T16:32:33;8.20;;;3.00;;
9398;SDS011;4739;49.334;8.792;2022-10-24T16:34:59;11.57;;;3.70;;
9398;SDS011;4739;49.334;8.792;2022-10-24T16:37:24;10.07;;;3.33;;
9398;SDS011;4739;49.334;8.792;2022-10-24T16:39:50;7.67;;;3.47;;
9398;SDS011;4739;49.334;8.792;2022-10-24T16:42:15;9.77;;;2.87;;
9398;SDS011;4739;49.334;8.792;2022-10-24T16:44:42;7.50;;;3.13;;
9398;SDS011;4739;49.334;8.792;2022-10-24T16:47:08;10.23;;;3.00;;
9398;SDS011;4739;49.334;8.792;2022-10-24T16:49:34;8.57;;;3.60;;
9398;SDS011;4739;49.334;8.792;2022-10-24T16:51:59;7.97;;;2.93;;
9398;SDS011;4739;49.334;8.792;2022-10-24T16:54:25;12.90;;;3.30;;
9398;SDS011;4739;49.334;8.792;2022-10-24T16:56:51;14.90;;;3.50;;
9398;SDS011;4739;49.334;8.792;2022-10-24T16:59:17;11.53;;;3.23;;
9398;SDS011;4739;49.334;8.792;2022-10-24T17:01:43;9.43;;;3.17;;
9398;SDS011;4739;49.334;8.792;2022-10-24T17:04:08;8.77;;;3.10;;
9398;SDS011;4739;49.334;8.792;2022-10-24T17:06:34;6.43;;;3.30;;
9398;SDS011;4739;49.334;8.792;2022-10-24T17:09:00;13.23;;;3.30;;
9398;SDS011;4739;49.334;8.792;2022-10-24T17:11:26;8.80;;;3.90;;
9398;SDS011;4739;49.334;8.792;2022-10-24T17:13:51;7.67;;;4.03;;
9398;SDS011;4739;49.334;8.792;2022-10-24T17:16:17;6.73;;;3.40;;
9398;SDS011;4739;49.334;8.792;2022-10-24T17:18:44;10.40;;;3.43;;
9398;SDS011;4739;49.334;8.792;2022-10-24T17:21:10;9.93;;;3.30;;
9398;SDS011;4739;49.334;8.792;2022-10-24T17:23:37;10.10;;;3.60;;
9398;SDS011;4739;49.334;8.792;2022-10-24T17:26:04;7.60;;;2.83;;
9398;SDS011;4739;49.334;8.792;2022-10-24T17:28:39;7.27;;;3.40;;
9398;SDS011;4739;49.334;8.792;2022-10-24T17:31:05;8.03;;;3.07;;
9398;SDS011;4739;49.334;8.792;2022-10-24T17:33:31;8.20;;;3.53;;
9398;SDS011;4739;49.334;8.792;2022-10-24T17:35:57;9.67;;;3.43;;
9398;SDS011;4739;49.334;8.792;2022-10-24T17:41:27;8.50;;;3.40;;
9398;SDS011;4739;49.334;8.792;2022-10-24T17:43:58;12.10;;;3.57;;
9398;SDS011;4739;49.334;8.792;2022-10-24T17:46:24;10.40;;;3.03;;
9398;SDS011;4739;49.334;8.792;2022-10-24T17:48:50;8.67;;;4.67;;
9398;SDS011;4739;49.334;8.792;2022-10-24T17:51:20;9.40;;;4.00;;
9398;SDS011;4739;49.334;8.792;2022-10-24T17:53:46;6.27;;;2.57;;
9398;SDS011;4739;49.334;8.792;2022-10-24T17:56:12;4.73;;;2.37;;
9398;SDS011;4739;49.334;8.792;2022-10-24T17:58:38;4.10;;;2.27;;
9398;SDS011;4739;49.334;8.792;2022-10-24T18:01:03;4.67;;;2.20;;
9398;SDS011;4739;49.334;8.792;2022-10-24T18:03:29;6.10;;;2.20;;
9398;SDS011;4739;49.334;8.792;2022-10-24T18:05:56;5.00;;;1.97;;
9398;SDS011;4739;49.334;8.792;2022-10-24T18:08:27;4.33;;;2.40;;